CST,Max TemperatureF,Mean TemperatureF,Min TemperatureF,Max Dew PointF,MeanDew PointF,Min DewpointF,Max Humidity, Mean Humidity, Min Humidity, Max Sea Level PressureIn, Mean Sea Level PressureIn, Min Sea Level PressureIn, Max VisibilityMiles, Mean VisibilityMiles, Min VisibilityMiles, Max Wind SpeedMPH, Mean Wind SpeedMPH, Max Gust SpeedMPH,PrecipitationIn, CloudCover, Events, WindDirDegrees
2013-2-1,53,38,23,32,23,10,70,54,32,30.42,30.30,30.15,10,10,10,14,6,17,0.00,0,,113
2013-2-2,62,47,32,32,30,28,87,60,27,30.33,30.24,30.13,10,10,10,13,3,18,0.00,0,,28
2013-2-3,62,47,32,34,30,27,93,55,26,30.32,30.19,29.96,10,10,10,9,2,,0.00,0,,165
2013-2-4,69,60,50,50,42,27,94,54,33,29.96,29.87,29.80,10,10,10,10,6,20,0.00,4,,198
2013-2-5,60,54,48,54,50,46,100,91,77,30.04,29.98,29.91,10,4,0,8,3,,0.00,7,Fog,92
2013-2-6,60,55,50,59,53,50,100,95,88,30.04,29.96,29.87,10,3,0,14,6,20,0.00,8,Fog-Thunderstorm,139
2013-2-7,73,60,46,55,50,37,100,79,35,30.14,29.92,29.82,10,7,1,17,8,25,0.00,6,Rain-Thunderstorm,97
2013-2-8,59,47,35,37,31,21,87,57,25,30.30,30.20,30.14,10,10,10,12,6,20,0.00,0,,53
2013-2-9,53,45,39,52,40,32,100,84,70,30.14,29.97,29.71,10,7,2,15,8,25,0.02,7,Rain,142
2013-2-10,62,52,41,55,32,21,100,50,20,30.04,29.84,29.67,10,9,2,17,8,23,0.37,2,Rain-Thunderstorm,274
2013-2-11,59,48,37,34,28,23,70,50,27,30.20,30.11,30.05,10,10,10,15,6,17,0.00,2,,76
2013-2-12,44,40,35,41,37,32,100,87,61,30.08,29.98,29.90,10,7,2,17,5,22,0.67,7,Rain-Thunderstorm,45
2013-2-13,55,44,33,36,32,23,93,72,29,30.13,30.06,29.99,10,10,10,10,4,17,0.00,3,,296
2013-2-14,64,47,30,36,30,23,100,61,21,30.18,30.05,30.00,10,9,4,15,1,24,0.00,0,,37
2013-2-15,50,41,32,34,23,14,70,48,29,30.39,30.33,30.19,10,10,10,22,10,28,0.00,4,Rain,15
2013-2-16,51,42,32,32,26,19,93,60,30,30.42,30.29,30.13,10,10,10,7,1,,0.00,2,,265
2013-2-17,71,53,35,41,30,23,87,48,18,30.13,29.97,29.84,10,10,10,18,6,30,0.00,0,,188
2013-2-18,68,56,44,52,38,27,82,51,26,30.15,29.86,29.72,10,10,10,21,13,31,0.00,2,,263
2013-2-19,57,44,32,28,24,19,87,47,23,30.34,30.23,30.15,10,10,10,12,4,21,0.00,1,,84
2013-2-20,46,40,35,36,33,23,100,84,40,30.22,30.07,29.84,10,10,3,17,8,26,0.44,8,Rain-Thunderstorm,119
2013-2-21,53,43,33,43,34,28,100,78,47,29.99,29.76,29.64,10,9,2,16,10,24,0.28,5,Rain-Thunderstorm,35
2013-2-22,44,35,26,28,21,18,87,60,43,30.17,30.08,29.97,10,10,10,9,5,17,0.00,0,,11
2013-2-23,50,38,26,32,25,19,86,65,37,30.12,30.02,29.92,10,10,10,8,3,,0.00,1,,16
2013-2-24,64,48,32,39,34,28,93,58,32,29.92,29.81,29.65,10,10,10,20,6,26,0.00,0,,143
2013-2-25,51,43,35,43,38,32,93,82,54,29.70,29.55,29.45,10,9,2,14,7,23,0.16,8,Rain-Thunderstorm,36
2013-2-26,53,44,35,32,30,23,87,63,33,29.92,29.79,29.62,10,10,10,13,8,26,0.00,3,,330
2013-2-27,51,42,33,32,27,16,93,61,24,30.23,30.09,29.90,10,10,10,15,5,24,0.00,2,,341
2013-2-28,53,42,32,28,26,21,87,58,28,30.27,30.23,30.19,10,10,10,13,4,23,0.00,0,,342